sensor_id;sensor_type;location;lat;lon;timestamp;P1;durP1;ratioP1;P2;durP2;ratioP2
66487;SDS011;53304;54.550;18.526;2022-09-20T00:01:52;3.72;;;1.70;;
66487;SDS011;53304;54.550;18.526;2022-09-20T00:04:17;6.03;;;1.80;;
66487;SDS011;53304;54.550;18.526;2022-09-20T00:06:43;8.43;;;2.25;;
66487;SDS011;53304;54.550;18.526;2022-09-20T00:09:08;4.18;;;1.80;;
66487;SDS011;53304;54.550;18.526;2022-09-20T00:11:34;4.97;;;1.70;;
66487;SDS011;53304;54.550;18.526;2022-09-20T00:14:00;3.72;;;1.85;;
66487;SDS011;53304;54.550;18.526;2022-09-20T00:16:31;4.78;;;1.70;;
66487;SDS011;53304;54.550;18.526;2022-09-20T00:18:58;5.20;;;1.77;;
66487;SDS011;53304;54.550;18.526;2022-09-20T00:21:25;5.65;;;1.90;;
66487;SDS011;53304;54.550;18.526;2022-09-20T00:23:52;4.40;;;1.80;;
66487;SDS011;53304;54.550;18.526;2022-09-20T00:26:18;5.50;;;1.90;;
66487;SDS011;53304;54.550;18.526;2022-09-20T00:28:46;3.85;;;1.70;;
66487;SDS011;53304;54.550;18.526;2022-09-20T00:31:15;4.32;;;2.10;;
66487;SDS011;53304;54.550;18.526;2022-09-20T00:33:41;3.85;;;1.60;;
66487;SDS011;53304;54.550;18.526;2022-09-20T00:36:28;6.18;;;1.98;;
66487;SDS011;53304;54.550;18.526;2022-09-20T00:38:58;5.05;;;1.80;;
66487;SDS011;53304;54.550;18.526;2022-09-20T00:41:26;4.70;;;1.80;;
66487;SDS011;53304;54.550;18.526;2022-09-20T00:43:55;4.22;;;1.70;;
66487;SDS011;53304;54.550;18.526;2022-09-20T00:46:36;3.75;;;1.65;;
66487;SDS011;53304;54.550;18.526;2022-09-20T00:49:07;5.60;;;1.88;;
66487;SDS011;53304;54.550;18.526;2022-09-20T00:51:39;3.65;;;1.63;;
66487;SDS011;53304;54.550;18.526;2022-09-20T00:54:10;5.63;;;1.55;;
66487;SDS011;53304;54.550;18.526;2022-09-20T00:56:38;3.35;;;1.40;;
66487;SDS011;53304;54.550;18.526;2022-09-20T01:01:48;4.13;;;1.63;;
66487;SDS011;53304;54.550;18.526;2022-09-20T01:04:16;4.95;;;2.00;;
66487;SDS011;53304;54.550;18.526;2022-09-20T01:06:45;3.58;;;1.70;;
66487;SDS011;53304;54.550;18.526;2022-09-20T01:09:13;4.60;;;1.75;;
66487;SDS011;53304;54.550;18.526;2022-09-20T01:11:38;4.00;;;1.60;;
66487;SDS011;53304;54.550;18.526;2022-09-20T01:14:07;3.95;;;1.50;;
66487;SDS011;53304;54.550;18.526;2022-09-20T01:16:35;4.20;;;1.70;;
66487;SDS011;53304;54.550;18.526;2022-09-20T01:19:01;6.07;;;1.67;;
66487;SDS011;53304;54.550;18.526;2022-09-20T01:21:31;4.57;;;1.48;;
66487;SDS011;53304;54.550;18.526;2022-09-20T01:31:54;3.55;;;1.50;;
66487;SDS011;53304;54.550;18.526;2022-09-20T01:34:28;3.53;;;1.55;;
66487;SDS011;53304;54.550;18.526;2022-09-20T01:42:57;4.65;;;1.70;;
66487;SDS011;53304;54.550;18.526;2022-09-20T01:45:57;4.68;;;1.70;;
66487;SDS011;53304;54.550;18.526;2022-09-20T01:48:27;3.75;;;1.50;;
66487;SDS011;53304;54.550;18.526;2022-09-20T02:02:05;3.63;;;1.40;;
66487;SDS011;53304;54.550;18.526;2022-09-20T02:18:43;3.65;;;1.50;;
66487;SDS011;53304;54.550;18.526;2022-09-20T02:21:37;4.68;;;1.48;;
66487;SDS011;53304;54.550;18.526;2022-09-20T02:24:22;4.15;;;1.27;;
66487;SDS011;53304;54.550;18.526;2022-09-20T03:00:18;3.35;;;1.30;;
66487;SDS011;53304;54.550;18.526;2022-09-20T03:08:44;2.60;;;1.20;;
66487;SDS011;53304;54.550;18.526;2022-09-20T03:19:47;2.63;;;1.10;;
66487;SDS011;53304;54.550;18.526;2022-09-20T03:44:04;2.15;;;1.20;;
66487;SDS011;53304;54.550;18.526;2022-09-20T03:46:45;2.80;;;1.10;;
66487;SDS011;53304;54.550;18.526;2022-09-20T04:11:08;2.45;;;1.25;;
66487;SDS011;53304;54.550;18.526;2022-09-20T04:13:45;3.53;;;1.30;;
66487;SDS011;53304;54.550;18.526;2022-09-20T04:21:59;3.88;;;1.30;;
66487;SDS011;53304;54.550;18.526;2022-09-20T04:27:14;4.28;;;1.30;;
66487;SDS011;53304;54.550;18.526;2022-09-20T04:32:43;4.10;;;1.30;;
66487;SDS011;53304;54.550;18.526;2022-09-20T04:37:58;1.98;;;1.10;;
66487;SDS011;53304;54.550;18.526;2022-09-20T04:51:28;4.78;;;1.20;;
66487;SDS011;53304;54.550;18.526;2022-09-20T04:59:08;6.28;;;1.13;;
66487;SDS011;53304;54.550;18.526;2022-09-20T05:21:05;4.07;;;1.30;;
66487;SDS011;53304;54.550;18.526;2022-09-20T05:23:44;4.78;;;1.35;;
66487;SDS011;53304;54.550;18.526;2022-09-20T05:26:15;5.07;;;1.50;;
66487;SDS011;53304;54.550;18.526;2022-09-20T05:31:40;6.68;;;1.40;;
66487;SDS011;53304;54.550;18.526;2022-09-20T05:42:18;4.40;;;1.13;;
66487;SDS011;53304;54.550;18.526;2022-09-20T06:06:11;8.02;;;1.63;;
66487;SDS011;53304;54.550;18.526;2022-09-20T06:14:55;2.85;;;1.13;;
66487;SDS011;53304;54.550;18.526;2022-09-20T06:20:15;5.38;;;0.98;;
66487;SDS011;53304;54.550;18.526;2022-09-20T06:22:50;3.58;;;1.38;;
66487;SDS011;53304;54.550;18.526;2022-09-20T06:25:22;7.35;;;1.35;;
66487;SDS011;53304;54.550;18.526;2022-09-20T06:30:22;6.80;;;1.40;;
66487;SDS011;53304;54.550;18.526;2022-09-20T06:36:11;4.05;;;1.15;;
66487;SDS011;53304;54.550;18.526;2022-09-20T06:42:00;5.82;;;1.20;;
66487;SDS011;53304;54.550;18.526;2022-09-20T06:44:28;3.25;;;1.10;;
66487;SDS011;53304;54.550;18.526;2022-09-20T06:46:56;5.38;;;1.13;;
66487;SDS011;53304;54.550;18.526;2022-09-20T06:49:22;3.50;;;1.08;;
66487;SDS011;53304;54.550;18.526;2022-09-20T06:51:53;3.42;;;0.90;;
66487;SDS011;53304;54.550;18.526;2022-09-20T06:54:20;5.20;;;1.10;;
66487;SDS011;53304;54.550;18.526;2022-09-20T06:56:46;2.95;;;0.93;;
66487;SDS011;53304;54.550;18.526;2022-09-20T06:59:15;3.30;;;1.00;;
66487;SDS011;53304;54.550;18.526;2022-09-20T07:01:41;3.17;;;1.02;;
66487;SDS011;53304;54.550;18.526;2022-09-20T07:04:06;2.10;;;0.90;;
66487;SDS011;53304;54.550;18.526;2022-09-20T07:06:34;2.17;;;1.00;;
66487;SDS011;53304;54.550;18.526;2022-09-20T07:09:05;4.35;;;1.10;;
66487;SDS011;53304;54.550;18.526;2022-09-20T07:11:31;3.67;;;1.10;;
66487;SDS011;53304;54.550;18.526;2022-09-20T07:13:58;2.63;;;1.08;;
66487;SDS011;53304;54.550;18.526;2022-09-20T07:16:24;1.73;;;0.93;;
66487;SDS011;53304;54.550;18.526;2022-09-20T07:18:50;3.08;;;1.20;;
66487;SDS011;53304;54.550;18.526;2022-09-20T07:21:17;3.10;;;1.20;;
66487;SDS011;53304;54.550;18.526;2022-09-20T07:23:52;2.30;;;1.17;;
66487;SDS011;53304;54.550;18.526;2022-09-20T07:26:25;2.60;;;1.00;;
66487;SDS011;53304;54.550;18.526;2022-09-20T07:28:52;2.55;;;0.90;;
66487;SDS011;53304;54.550;18.526;2022-09-20T07:31:19;2.63;;;1.00;;
66487;SDS011;53304;54.550;18.526;2022-09-20T07:33:46;2.20;;;0.90;;
66487;SDS011;53304;54.550;18.526;2022-09-20T07:36:12;9.70;;;1.50;;
66487;SDS011;53304;54.550;18.526;2022-09-20T07:38:40;3.33;;;1.40;;
66487;SDS011;53304;54.550;18.526;2022-09-20T07:41:07;6.32;;;1.60;;
66487;SDS011;53304;54.550;18.526;2022-09-20T07:43:35;6.05;;;1.30;;
66487;SDS011;53304;54.550;18.526;2022-09-20T07:46:08;9.25;;;2.10;;
66487;SDS011;53304;54.550;18.526;2022-09-20T07:48:36;10.63;;;2.00;;
66487;SDS011;53304;54.550;18.526;2022-09-20T07:51:06;10.68;;;2.03;;
66487;SDS011;53304;54.550;18.526;2022-09-20T07:53:36;11.00;;;1.70;;
66487;SDS011;53304;54.550;18.526;2022-09-20T07:56:08;8.15;;;2.10;;
66487;SDS011;53304;54.550;18.526;2022-09-20T07:58:34;13.30;;;2.38;;
66487;SDS011;53304;54.550;18.526;2022-09-20T08:01:01;9.52;;;2.20;;
66487;SDS011;53304;54.550;18.526;2022-09-20T08:03:33;9.35;;;2.30;;
66487;SDS011;53304;54.550;18.526;2022-09-20T08:06:09;6.38;;;1.67;;
66487;SDS011;53304;54.550;18.526;2022-09-20T08:08:42;6.60;;;1.77;;
66487;SDS011;53304;54.550;18.526;2022-09-20T08:11:11;7.45;;;1.50;;
66487;SDS011;53304;54.550;18.526;2022-09-20T08:13:43;5.85;;;1.42;;
66487;SDS011;53304;54.550;18.526;2022-09-20T08:16:14;8.27;;;1.52;;
66487;SDS011;53304;54.550;18.526;2022-09-20T08:18:47;7.43;;;2.35;;
66487;SDS011;53304;54.550;18.526;2022-09-20T08:21:14;5.00;;;1.70;;
66487;SDS011;53304;54.550;18.526;2022-09-20T08:23:45;6.18;;;1.60;;
66487;SDS011;53304;54.550;18.526;2022-09-20T08:26:14;6.80;;;1.80;;
66487;SDS011;53304;54.550;18.526;2022-09-20T08:28:42;5.72;;;1.60;;
66487;SDS011;53304;54.550;18.526;2022-09-20T08:31:18;5.10;;;1.45;;
66487;SDS011;53304;54.550;18.526;2022-09-20T08:33:45;4.25;;;1.40;;
66487;SDS011;53304;54.550;18.526;2022-09-20T08:36:12;3.88;;;1.23;;
66487;SDS011;53304;54.550;18.526;2022-09-20T08:38:41;6.00;;;1.50;;
66487;SDS011;53304;54.550;18.526;2022-09-20T08:46:19;3.20;;;1.23;;
66487;SDS011;53304;54.550;18.526;2022-09-20T08:48:50;5.43;;;1.30;;
66487;SDS011;53304;54.550;18.526;2022-09-20T08:51:17;3.58;;;1.20;;
66487;SDS011;53304;54.550;18.526;2022-09-20T08:53:46;3.20;;;1.48;;
66487;SDS011;53304;54.550;18.526;2022-09-20T08:56:14;3.33;;;1.30;;
66487;SDS011;53304;54.550;18.526;2022-09-20T08:58:39;5.75;;;1.30;;
66487;SDS011;53304;54.550;18.526;2022-09-20T09:01:05;5.53;;;1.30;;
66487;SDS011;53304;54.550;18.526;2022-09-20T09:03:33;2.78;;;1.20;;
66487;SDS011;53304;54.550;18.526;2022-09-20T09:05:58;3.92;;;1.10;;
66487;SDS011;53304;54.550;18.526;2022-09-20T09:08:27;3.60;;;1.20;;
66487;SDS011;53304;54.550;18.526;2022-09-20T09:10:59;2.05;;;1.08;;
66487;SDS011;53304;54.550;18.526;2022-09-20T09:16:11;3.30;;;0.90;;
66487;SDS011;53304;54.550;18.526;2022-09-20T09:18:41;2.33;;;0.90;;
66487;SDS011;53304;54.550;18.526;2022-09-20T09:21:20;2.00;;;0.90;;
66487;SDS011;53304;54.550;18.526;2022-09-20T09:26:45;3.00;;;0.80;;
66487;SDS011;53304;54.550;18.526;2022-09-20T09:29:20;1.30;;;0.70;;
66487;SDS011;53304;54.550;18.526;2022-09-20T09:31:47;1.92;;;0.70;;
66487;SDS011;53304;54.550;18.526;2022-09-20T09:34:31;2.03;;;0.70;;
66487;SDS011;53304;54.550;18.526;2022-09-20T09:36:58;1.42;;;0.70;;
66487;SDS011;53304;54.550;18.526;2022-09-20T09:39:27;2.38;;;0.98;;
66487;SDS011;53304;54.550;18.526;2022-09-20T09:41:55;2.67;;;1.00;;
66487;SDS011;53304;54.550;18.526;2022-09-20T09:44:28;1.67;;;0.60;;
66487;SDS011;53304;54.550;18.526;2022-09-20T09:49:23;2.57;;;0.97;;
66487;SDS011;53304;54.550;18.526;2022-09-20T09:54:21;2.53;;;0.87;;
66487;SDS011;53304;54.550;18.526;2022-09-20T09:59:45;1.77;;;0.70;;
66487;SDS011;53304;54.550;18.526;2022-09-20T10:07:43;2.80;;;0.77;;
66487;SDS011;53304;54.550;18.526;2022-09-20T10:12:54;2.03;;;0.68;;
66487;SDS011;53304;54.550;18.526;2022-09-20T10:21:32;2.42;;;0.70;;
66487;SDS011;53304;54.550;18.526;2022-09-20T10:43:34;2.30;;;0.82;;
66487;SDS011;53304;54.550;18.526;2022-09-20T10:46:18;2.45;;;1.00;;
66487;SDS011;53304;54.550;18.526;2022-09-20T10:48:46;2.20;;;1.00;;
66487;SDS011;53304;54.550;18.526;2022-09-20T11:07:21;4.57;;;1.13;;
66487;SDS011;53304;54.550;18.526;2022-09-20T11:10:04;2.20;;;1.05;;
66487;SDS011;53304;54.550;18.526;2022-09-20T11:12:47;1.65;;;0.90;;
66487;SDS011;53304;54.550;18.526;2022-09-20T11:18:16;3.20;;;1.17;;
66487;SDS011;53304;54.550;18.526;2022-09-20T11:20:52;3.25;;;1.10;;
66487;SDS011;53304;54.550;18.526;2022-09-20T11:23:43;2.65;;;1.20;;
66487;SDS011;53304;54.550;18.526;2022-09-20T11:26:20;4.18;;;1.10;;
66487;SDS011;53304;54.550;18.526;2022-09-20T11:28:50;4.07;;;1.10;;
66487;SDS011;53304;54.550;18.526;2022-09-20T11:33:59;4.25;;;1.10;;
66487;SDS011;53304;54.550;18.526;2022-09-20T11:38:59;1.45;;;1.00;;
66487;SDS011;53304;54.550;18.526;2022-09-20T11:41:33;3.55;;;1.30;;
66487;SDS011;53304;54.550;18.526;2022-09-20T11:44:21;2.78;;;1.25;;
66487;SDS011;53304;54.550;18.526;2022-09-20T11:57:14;2.20;;;1.27;;
66487;SDS011;53304;54.550;18.526;2022-09-20T11:59:47;2.72;;;1.30;;
66487;SDS011;53304;54.550;18.526;2022-09-20T12:02:17;3.65;;;1.48;;
66487;SDS011;53304;54.550;18.526;2022-09-20T12:04:45;2.83;;;1.30;;
66487;SDS011;53304;54.550;18.526;2022-09-20T12:09:53;3.05;;;1.58;;
66487;SDS011;53304;54.550;18.526;2022-09-20T12:14:58;3.42;;;1.42;;
66487;SDS011;53304;54.550;18.526;2022-09-20T12:26:00;4.45;;;1.40;;
66487;SDS011;53304;54.550;18.526;2022-09-20T12:34:32;3.28;;;1.40;;
66487;SDS011;53304;54.550;18.526;2022-09-20T12:36:34;3.30;;;1.33;;
66487;SDS011;53304;54.550;18.526;2022-09-20T12:41:45;3.50;;;1.50;;
66487;SDS011;53304;54.550;18.526;2022-09-20T13:08:34;3.15;;;1.10;;
66487;SDS011;53304;54.550;18.526;2022-09-20T13:13:34;3.33;;;1.10;;
66487;SDS011;53304;54.550;18.526;2022-09-20T13:16:03;4.10;;;1.15;;
66487;SDS011;53304;54.550;18.526;2022-09-20T13:18:30;4.20;;;1.35;;
66487;SDS011;53304;54.550;18.526;2022-09-20T13:20:57;8.45;;;1.50;;
66487;SDS011;53304;54.550;18.526;2022-09-20T13:23:29;9.20;;;2.00;;
66487;SDS011;53304;54.550;18.526;2022-09-20T13:25:58;5.78;;;1.75;;
66487;SDS011;53304;54.550;18.526;2022-09-20T13:28:59;6.25;;;1.70;;
66487;SDS011;53304;54.550;18.526;2022-09-20T13:31:30;10.70;;;1.77;;
66487;SDS011;53304;54.550;18.526;2022-09-20T13:36:52;3.05;;;1.35;;
66487;SDS011;53304;54.550;18.526;2022-09-20T13:39:21;4.55;;;1.30;;
66487;SDS011;53304;54.550;18.526;2022-09-20T13:41:48;3.83;;;1.33;;
66487;SDS011;53304;54.550;18.526;2022-09-20T13:44:15;3.80;;;1.20;;
66487;SDS011;53304;54.550;18.526;2022-09-20T13:46:42;4.65;;;1.30;;
66487;SDS011;53304;54.550;18.526;2022-09-20T13:51:41;9.15;;;1.60;;
66487;SDS011;53304;54.550;18.526;2022-09-20T13:56:51;5.32;;;1.38;;
66487;SDS011;53304;54.550;18.526;2022-09-20T13:59:18;2.60;;;1.23;;
66487;SDS011;53304;54.550;18.526;2022-09-20T14:01:49;5.07;;;1.33;;
66487;SDS011;53304;54.550;18.526;2022-09-20T14:04:21;1.60;;;1.10;;
66487;SDS011;53304;54.550;18.526;2022-09-20T14:06:48;4.10;;;1.40;;
66487;SDS011;53304;54.550;18.526;2022-09-20T14:09:27;3.58;;;1.23;;
66487;SDS011;53304;54.550;18.526;2022-09-20T14:11:57;3.75;;;1.17;;
66487;SDS011;53304;54.550;18.526;2022-09-20T14:14:27;2.78;;;1.20;;
66487;SDS011;53304;54.550;18.526;2022-09-20T14:16:58;5.00;;;1.27;;
66487;SDS011;53304;54.550;18.526;2022-09-20T14:19:32;4.05;;;1.10;;
66487;SDS011;53304;54.550;18.526;2022-09-20T14:22:03;3.67;;;1.20;;
66487;SDS011;53304;54.550;18.526;2022-09-20T14:24:30;4.10;;;1.08;;
66487;SDS011;53304;54.550;18.526;2022-09-20T14:27:13;1.65;;;0.95;;
66487;SDS011;53304;54.550;18.526;2022-09-20T14:29:41;3.85;;;1.15;;
66487;SDS011;53304;54.550;18.526;2022-09-20T14:34:36;3.97;;;1.33;;
66487;SDS011;53304;54.550;18.526;2022-09-20T14:37:08;3.50;;;1.25;;
66487;SDS011;53304;54.550;18.526;2022-09-20T14:39:43;10.73;;;1.42;;
66487;SDS011;53304;54.550;18.526;2022-09-20T14:42:16;2.88;;;1.30;;
66487;SDS011;53304;54.550;18.526;2022-09-20T14:44:50;3.40;;;1.38;;
66487;SDS011;53304;54.550;18.526;2022-09-20T14:47:22;2.92;;;1.30;;
66487;SDS011;53304;54.550;18.526;2022-09-20T14:49:51;3.88;;;1.10;;
66487;SDS011;53304;54.550;18.526;2022-09-20T14:57:36;2.92;;;1.40;;
66487;SDS011;53304;54.550;18.526;2022-09-20T15:00:14;3.20;;;1.30;;
66487;SDS011;53304;54.550;18.526;2022-09-20T15:02:44;4.30;;;1.60;;
66487;SDS011;53304;54.550;18.526;2022-09-20T15:08:04;2.03;;;1.30;;
66487;SDS011;53304;54.550;18.526;2022-09-20T15:10:35;2.10;;;1.17;;
66487;SDS011;53304;54.550;18.526;2022-09-20T15:13:02;3.78;;;1.58;;
66487;SDS011;53304;54.550;18.526;2022-09-20T15:15:27;3.35;;;1.20;;
66487;SDS011;53304;54.550;18.526;2022-09-20T15:17:55;3.33;;;1.35;;
66487;SDS011;53304;54.550;18.526;2022-09-20T15:20:21;3.83;;;1.30;;
66487;SDS011;53304;54.550;18.526;2022-09-20T15:22:49;3.72;;;1.45;;
66487;SDS011;53304;54.550;18.526;2022-09-20T15:25:17;4.65;;;1.35;;
66487;SDS011;53304;54.550;18.526;2022-09-20T15:27:45;3.70;;;1.45;;
66487;SDS011;53304;54.550;18.526;2022-09-20T15:30:12;4.60;;;1.13;;
66487;SDS011;53304;54.550;18.526;2022-09-20T15:32:40;5.65;;;1.35;;
66487;SDS011;53304;54.550;18.526;2022-09-20T15:35:08;3.70;;;1.40;;
66487;SDS011;53304;54.550;18.526;2022-09-20T15:37:37;2.92;;;1.30;;
66487;SDS011;53304;54.550;18.526;2022-09-20T15:40:03;2.60;;;1.30;;
66487;SDS011;53304;54.550;18.526;2022-09-20T15:42:35;3.78;;;1.30;;
66487;SDS011;53304;54.550;18.526;2022-09-20T15:45:06;2.53;;;1.30;;
66487;SDS011;53304;54.550;18.526;2022-09-20T15:47:37;5.22;;;1.50;;
66487;SDS011;53304;54.550;18.526;2022-09-20T15:50:08;2.55;;;1.20;;
66487;SDS011;53304;54.550;18.526;2022-09-20T15:52:37;4.70;;;1.40;;
66487;SDS011;53304;54.550;18.526;2022-09-20T15:55:06;3.33;;;1.40;;
66487;SDS011;53304;54.550;18.526;2022-09-20T15:57:37;2.25;;;1.30;;
66487;SDS011;53304;54.550;18.526;2022-09-20T16:00:04;3.25;;;1.30;;
66487;SDS011;53304;54.550;18.526;2022-09-20T16:02:32;3.47;;;1.50;;
66487;SDS011;53304;54.550;18.526;2022-09-20T16:04:58;2.72;;;1.20;;
66487;SDS011;53304;54.550;18.526;2022-09-20T16:07:25;3.58;;;1.58;;
66487;SDS011;53304;54.550;18.526;2022-09-20T16:09:52;2.97;;;1.50;;
66487;SDS011;53304;54.550;18.526;2022-09-20T16:12:21;2.80;;;1.40;;
66487;SDS011;53304;54.550;18.526;2022-09-20T16:14:51;3.00;;;1.33;;
66487;SDS011;53304;54.550;18.526;2022-09-20T16:17:17;2.20;;;1.20;;
66487;SDS011;53304;54.550;18.526;2022-09-20T16:20:05;3.13;;;1.48;;
66487;SDS011;53304;54.550;18.526;2022-09-20T16:22:33;3.58;;;1.40;;
66487;SDS011;53304;54.550;18.526;2022-09-20T16:24:59;2.95;;;1.42;;
66487;SDS011;53304;54.550;18.526;2022-09-20T16:27:25;3.53;;;1.50;;
66487;SDS011;53304;54.550;18.526;2022-09-20T16:29:58;3.90;;;1.55;;
66487;SDS011;53304;54.550;18.526;2022-09-20T16:32:28;3.42;;;1.77;;
66487;SDS011;53304;54.550;18.526;2022-09-20T16:34:53;3.10;;;1.90;;
66487;SDS011;53304;54.550;18.526;2022-09-20T16:37:22;5.32;;;1.70;;
66487;SDS011;53304;54.550;18.526;2022-09-20T16:39:50;4.28;;;1.60;;
66487;SDS011;53304;54.550;18.526;2022-09-20T16:42:18;4.60;;;2.00;;
66487;SDS011;53304;54.550;18.526;2022-09-20T16:44:44;3.75;;;2.03;;
66487;SDS011;53304;54.550;18.526;2022-09-20T16:47:14;7.43;;;2.80;;
66487;SDS011;53304;54.550;18.526;2022-09-20T16:49:46;4.60;;;2.60;;
66487;SDS011;53304;54.550;18.526;2022-09-20T16:52:16;5.45;;;3.00;;
66487;SDS011;53304;54.550;18.526;2022-09-20T16:54:42;5.45;;;2.88;;
66487;SDS011;53304;54.550;18.526;2022-09-20T16:57:07;6.82;;;3.42;;
66487;SDS011;53304;54.550;18.526;2022-09-20T16:59:33;7.72;;;3.30;;
66487;SDS011;53304;54.550;18.526;2022-09-20T17:01:58;5.63;;;3.35;;
66487;SDS011;53304;54.550;18.526;2022-09-20T17:04:26;7.35;;;4.00;;
66487;SDS011;53304;54.550;18.526;2022-09-20T17:06:52;5.97;;;4.00;;
66487;SDS011;53304;54.550;18.526;2022-09-20T17:09:19;6.45;;;4.07;;
66487;SDS011;53304;54.550;18.526;2022-09-20T17:11:48;5.53;;;4.10;;
66487;SDS011;53304;54.550;18.526;2022-09-20T17:14:16;7.38;;;4.45;;
66487;SDS011;53304;54.550;18.526;2022-09-20T17:16:43;5.70;;;4.05;;
66487;SDS011;53304;54.550;18.526;2022-09-20T17:19:14;6.88;;;4.60;;
66487;SDS011;53304;54.550;18.526;2022-09-20T17:21:43;6.97;;;4.20;;
66487;SDS011;53304;54.550;18.526;2022-09-20T17:24:17;6.50;;;4.40;;
66487;SDS011;53304;54.550;18.526;2022-09-20T17:26:49;6.97;;;4.30;;
66487;SDS011;53304;54.550;18.526;2022-09-20T17:29:17;6.75;;;4.30;;
66487;SDS011;53304;54.550;18.526;2022-09-20T17:31:46;7.45;;;4.20;;
66487;SDS011;53304;54.550;18.526;2022-09-20T17:34:13;18.92;;;4.43;;
66487;SDS011;53304;54.550;18.526;2022-09-20T17:36:40;16.67;;;4.20;;
66487;SDS011;53304;54.550;18.526;2022-09-20T17:39:07;10.50;;;3.60;;
66487;SDS011;53304;54.550;18.526;2022-09-20T17:41:37;12.57;;;3.90;;
66487;SDS011;53304;54.550;18.526;2022-09-20T17:44:06;10.85;;;3.92;;
66487;SDS011;53304;54.550;18.526;2022-09-20T17:46:36;7.30;;;3.53;;
66487;SDS011;53304;54.550;18.526;2022-09-20T17:49:07;12.82;;;4.20;;
66487;SDS011;53304;54.550;18.526;2022-09-20T17:51:40;17.40;;;4.70;;
66487;SDS011;53304;54.550;18.526;2022-09-20T17:54:09;18.63;;;4.82;;
66487;SDS011;53304;54.550;18.526;2022-09-20T17:56:38;8.63;;;4.00;;
66487;SDS011;53304;54.550;18.526;2022-09-20T17:59:06;13.40;;;4.07;;
66487;SDS011;53304;54.550;18.526;2022-09-20T18:01:34;19.92;;;4.50;;
66487;SDS011;53304;54.550;18.526;2022-09-20T18:04:03;9.57;;;4.38;;
66487;SDS011;53304;54.550;18.526;2022-09-20T18:06:36;16.63;;;4.18;;
66487;SDS011;53304;54.550;18.526;2022-09-20T18:09:09;10.85;;;4.05;;
66487;SDS011;53304;54.550;18.526;2022-09-20T18:11:37;9.23;;;3.70;;
66487;SDS011;53304;54.550;18.526;2022-09-20T18:14:06;15.40;;;4.00;;
66487;SDS011;53304;54.550;18.526;2022-09-20T18:16:34;10.95;;;3.78;;
66487;SDS011;53304;54.550;18.526;2022-09-20T18:19:03;9.23;;;3.83;;
66487;SDS011;53304;54.550;18.526;2022-09-20T18:21:30;10.50;;;3.53;;
66487;SDS011;53304;54.550;18.526;2022-09-20T18:23:56;10.60;;;3.72;;
66487;SDS011;53304;54.550;18.526;2022-09-20T18:26:26;12.68;;;3.13;;
66487;SDS011;53304;54.550;18.526;2022-09-20T18:34:00;10.10;;;3.55;;
66487;SDS011;53304;54.550;18.526;2022-09-20T18:36:31;9.35;;;3.47;;
66487;SDS011;53304;54.550;18.526;2022-09-20T18:38:58;10.40;;;3.88;;
66487;SDS011;53304;54.550;18.526;2022-09-20T18:41:25;10.05;;;3.60;;
66487;SDS011;53304;54.550;18.526;2022-09-20T18:43:53;7.53;;;3.35;;
66487;SDS011;53304;54.550;18.526;2022-09-20T18:46:22;12.00;;;3.38;;
66487;SDS011;53304;54.550;18.526;2022-09-20T18:48:49;7.45;;;3.40;;
66487;SDS011;53304;54.550;18.526;2022-09-20T18:51:20;7.00;;;3.30;;
66487;SDS011;53304;54.550;18.526;2022-09-20T18:53:48;6.28;;;3.13;;
66487;SDS011;53304;54.550;18.526;2022-09-20T18:56:26;7.97;;;3.05;;
66487;SDS011;53304;54.550;18.526;2022-09-20T18:58:57;6.93;;;3.25;;
66487;SDS011;53304;54.550;18.526;2022-09-20T19:06:38;11.88;;;3.25;;
66487;SDS011;53304;54.550;18.526;2022-09-20T19:09:11;10.85;;;2.72;;
66487;SDS011;53304;54.550;18.526;2022-09-20T19:11:42;7.38;;;2.97;;
66487;SDS011;53304;54.550;18.526;2022-09-20T19:14:25;8.60;;;2.80;;
66487;SDS011;53304;54.550;18.526;2022-09-20T19:16:59;6.07;;;2.80;;
66487;SDS011;53304;54.550;18.526;2022-09-20T19:22:20;5.30;;;3.00;;
66487;SDS011;53304;54.550;18.526;2022-09-20T19:28:11;7.45;;;2.80;;
66487;SDS011;53304;54.550;18.526;2022-09-20T19:30:37;9.30;;;2.75;;
66487;SDS011;53304;54.550;18.526;2022-09-20T19:33:16;9.07;;;3.00;;
66487;SDS011;53304;54.550;18.526;2022-09-20T19:35:47;7.55;;;2.53;;
66487;SDS011;53304;54.550;18.526;2022-09-20T19:46:33;7.63;;;2.50;;
66487;SDS011;53304;54.550;18.526;2022-09-20T19:51:38;6.78;;;2.60;;
66487;SDS011;53304;54.550;18.526;2022-09-20T19:54:05;7.00;;;2.60;;
66487;SDS011;53304;54.550;18.526;2022-09-20T19:56:40;6.95;;;2.50;;
66487;SDS011;53304;54.550;18.526;2022-09-20T19:59:20;6.07;;;2.30;;
66487;SDS011;53304;54.550;18.526;2022-09-20T20:01:49;3.72;;;1.98;;
66487;SDS011;53304;54.550;18.526;2022-09-20T20:04:17;7.25;;;2.20;;
66487;SDS011;53304;54.550;18.526;2022-09-20T20:06:50;6.50;;;2.53;;
66487;SDS011;53304;54.550;18.526;2022-09-20T20:21:01;4.32;;;1.98;;
66487;SDS011;53304;54.550;18.526;2022-09-20T20:26:43;6.10;;;2.30;;
66487;SDS011;53304;54.550;18.526;2022-09-20T20:29:09;7.50;;;2.00;;
66487;SDS011;53304;54.550;18.526;2022-09-20T20:31:35;5.22;;;2.20;;
66487;SDS011;53304;54.550;18.526;2022-09-20T20:34:03;4.40;;;1.90;;
66487;SDS011;53304;54.550;18.526;2022-09-20T20:36:34;5.45;;;2.00;;
66487;SDS011;53304;54.550;18.526;2022-09-20T20:39:00;5.72;;;2.20;;
66487;SDS011;53304;54.550;18.526;2022-09-20T20:41:29;5.25;;;2.00;;
66487;SDS011;53304;54.550;18.526;2022-09-20T20:43:55;5.13;;;1.90;;
66487;SDS011;53304;54.550;18.526;2022-09-20T20:46:23;4.38;;;1.73;;
66487;SDS011;53304;54.550;18.526;2022-09-20T20:48:51;4.80;;;1.77;;
66487;SDS011;53304;54.550;18.526;2022-09-20T20:51:18;4.30;;;1.90;;
66487;SDS011;53304;54.550;18.526;2022-09-20T20:53:47;5.30;;;1.83;;
66487;SDS011;53304;54.550;18.526;2022-09-20T20:58:44;4.28;;;1.88;;
66487;SDS011;53304;54.550;18.526;2022-09-20T21:01:11;3.78;;;1.80;;
66487;SDS011;53304;54.550;18.526;2022-09-20T21:03:41;4.05;;;1.67;;
66487;SDS011;53304;54.550;18.526;2022-09-20T21:06:12;5.07;;;1.98;;
66487;SDS011;53304;54.550;18.526;2022-09-20T21:08:41;3.72;;;1.90;;
66487;SDS011;53304;54.550;18.526;2022-09-20T21:11:18;4.45;;;1.70;;
66487;SDS011;53304;54.550;18.526;2022-09-20T21:13:48;3.63;;;1.60;;
66487;SDS011;53304;54.550;18.526;2022-09-20T21:16:15;7.82;;;1.80;;
66487;SDS011;53304;54.550;18.526;2022-09-20T21:18:43;4.78;;;1.70;;
66487;SDS011;53304;54.550;18.526;2022-09-20T21:23:51;3.75;;;1.70;;
66487;SDS011;53304;54.550;18.526;2022-09-20T21:26:18;3.15;;;1.70;;
66487;SDS011;53304;54.550;18.526;2022-09-20T21:28:48;2.88;;;1.40;;
66487;SDS011;53304;54.550;18.526;2022-09-20T21:31:15;1.80;;;1.20;;
66487;SDS011;53304;54.550;18.526;2022-09-20T21:33:41;4.18;;;1.50;;
66487;SDS011;53304;54.550;18.526;2022-09-20T21:36:07;3.38;;;1.50;;
66487;SDS011;53304;54.550;18.526;2022-09-20T21:38:37;4.38;;;1.40;;
66487;SDS011;53304;54.550;18.526;2022-09-20T21:41:04;10.30;;;1.83;;
66487;SDS011;53304;54.550;18.526;2022-09-20T21:43:35;3.25;;;1.38;;
66487;SDS011;53304;54.550;18.526;2022-09-20T21:46:00;3.10;;;1.40;;
66487;SDS011;53304;54.550;18.526;2022-09-20T21:48:29;3.92;;;1.40;;
66487;SDS011;53304;54.550;18.526;2022-09-20T21:51:03;3.60;;;1.50;;
66487;SDS011;53304;54.550;18.526;2022-09-20T21:53:36;3.45;;;1.60;;
66487;SDS011;53304;54.550;18.526;2022-09-20T21:56:03;2.85;;;1.42;;
66487;SDS011;53304;54.550;18.526;2022-09-20T21:58:33;2.97;;;1.40;;
66487;SDS011;53304;54.550;18.526;2022-09-20T22:01:00;3.85;;;1.60;;
66487;SDS011;53304;54.550;18.526;2022-09-20T22:06:09;3.58;;;1.58;;
66487;SDS011;53304;54.550;18.526;2022-09-20T22:08:37;2.58;;;1.25;;